Terminal Aerodrome Forecast
Issued by NWS Lubbock, TX

Home | Current Version | Previous Version | Text Only | Print | Product List | Glossary On
Versions: 1 2 3 4 5 6 7 8 9 10 11 12 13 14 15 16 17 18 19
000
FTUS44 KLUB 210521
TAFLBB
TAF
KLBB 210521Z 2106/2206 33007KT P6SM SCT070 BKN200
      TEMPO 2106/2107 -TSRA BKN070CB
     FM211700 19011KT P6SM SCT100 BKN200=

USA.gov is the U.S. government's official web portal to all federal, state and local government web resources and services.